createdAt,value
2023-01-02T00:01:30.689Z,9.87
2023-01-02T00:03:59.149Z,6.57
2023-01-02T00:06:27.257Z,6.03
2023-01-02T00:08:54.816Z,8.70
2023-01-02T00:11:22.489Z,8.13
2023-01-02T00:13:50.133Z,10.07
2023-01-02T00:16:17.822Z,6.13
2023-01-02T00:18:45.531Z,11.17
2023-01-02T00:21:13.289Z,11.07
2023-01-02T00:23:41.705Z,7.13
2023-01-02T00:26:09.895Z,16.10
2023-01-02T00:28:38.748Z,6.60
2023-01-02T00:31:14.633Z,5.27
2023-01-02T00:33:43.819Z,10.17
2023-01-02T00:36:13.911Z,8.10
2023-01-02T00:38:42.196Z,15.17
2023-01-02T00:41:10.503Z,8.87
2023-01-02T00:43:38.618Z,10.37
2023-01-02T00:46:11.677Z,7.67
2023-01-02T00:48:40.772Z,10.97
2023-01-02T00:51:09.244Z,7.47
2023-01-02T00:53:37.207Z,10.83
2023-01-02T00:56:05.795Z,8.83
2023-01-02T00:58:33.483Z,7.53
2023-01-02T01:01:01.125Z,10.20
2023-01-02T01:03:29.512Z,11.03
2023-01-02T01:05:57.215Z,6.80
2023-01-02T01:08:24.987Z,8.37
2023-01-02T01:10:52.583Z,11.33
2023-01-02T01:13:20.199Z,7.93
2023-01-02T01:15:47.889Z,14.90
2023-01-02T01:18:15.848Z,11.40
2023-01-02T01:20:44.066Z,7.77
2023-01-02T01:23:11.570Z,8.43
2023-01-02T01:25:39.288Z,11.37
2023-01-02T01:28:07.469Z,10.53
2023-01-02T01:30:35.091Z,9.40
2023-01-02T01:33:02.734Z,13.00
2023-01-02T01:35:30.311Z,7.50
2023-01-02T01:37:57.893Z,10.00
2023-01-02T01:40:26.585Z,8.03
2023-01-02T01:43:00.537Z,8.20
2023-01-02T01:45:28.580Z,11.37
2023-01-02T01:48:01.494Z,10.67
2023-01-02T01:50:36.362Z,14.40
2023-01-02T01:53:22.060Z,8.40
2023-01-02T01:55:58.442Z,9.77
2023-01-02T01:58:45.301Z,6.57
2023-01-02T02:01:17.759Z,10.10
2023-01-02T02:03:50.471Z,11.37
2023-01-02T02:06:20.261Z,10.90
2023-01-02T02:09:14.350Z,9.20
2023-01-02T02:11:43.941Z,11.47
2023-01-02T02:14:11.591Z,15.10
2023-01-02T02:17:30.148Z,14.90
2023-01-02T02:20:37.556Z,8.83
2023-01-02T02:23:40.158Z,10.70
2023-01-02T02:26:47.485Z,10.43
2023-01-02T02:30:14.697Z,9.67
2023-01-02T02:33:41.403Z,10.83
2023-01-02T02:36:46.305Z,11.53
2023-01-02T02:39:59.703Z,10.43
2023-01-02T02:43:24.075Z,10.80
2023-01-02T02:46:49.323Z,15.67
2023-01-02T02:49:59.051Z,8.30
2023-01-02T02:53:17.904Z,9.87
2023-01-02T02:55:53.487Z,15.13
2023-01-02T02:58:25.309Z,6.80
2023-01-02T03:01:13.639Z,8.20
2023-01-02T03:03:41.949Z,13.57
2023-01-02T03:06:18.217Z,9.60
2023-01-02T03:09:24.042Z,9.93
2023-01-02T03:12:36.954Z,9.77
2023-01-02T03:15:35.596Z,12.17
2023-01-02T03:18:43.584Z,7.33
2023-01-02T03:21:26.562Z,12.80
2023-01-02T03:24:10.842Z,16.07
2023-01-02T03:26:46.974Z,11.30
2023-01-02T03:29:30.626Z,12.63
2023-01-02T03:32:05.479Z,14.40
2023-01-02T03:34:40.231Z,10.93
2023-01-02T03:37:20.763Z,16.13
2023-01-02T03:40:05.212Z,10.27
2023-01-02T03:43:08.253Z,10.67
2023-01-02T03:46:05.358Z,11.23
2023-01-02T03:49:15.013Z,10.13
2023-01-02T03:51:42.891Z,10.23
2023-01-02T03:54:12.058Z,11.37
2023-01-02T03:57:09.127Z,11.43
2023-01-02T04:00:08.219Z,13.57
2023-01-02T04:03:10.982Z,11.93
2023-01-02T04:06:15.751Z,6.63
2023-01-02T04:09:08.197Z,10.60
2023-01-02T04:11:45.733Z,7.30
2023-01-02T04:14:28.601Z,15.40
2023-01-02T04:17:01.261Z,9.07
2023-01-02T04:20:00.976Z,11.17
2023-01-02T04:22:47.891Z,12.00
2023-01-02T04:25:19.451Z,9.30
2023-01-02T04:28:07.517Z,13.23
2023-01-02T04:30:48.947Z,10.40
2023-01-02T04:33:19.888Z,13.37
2023-01-02T04:35:47.494Z,9.30
2023-01-02T04:38:15.146Z,9.60
2023-01-02T04:40:42.781Z,16.03
2023-01-02T04:43:22.506Z,10.83
2023-01-02T04:45:51.043Z,13.27
2023-01-02T04:48:18.791Z,20.43
2023-01-02T04:50:48.393Z,15.07
2023-01-02T04:53:16.628Z,9.90
2023-01-02T04:55:44.218Z,11.83
2023-01-02T04:58:13.036Z,11.47
2023-01-02T05:00:55.931Z,17.63
2023-01-02T05:03:25.518Z,10.10
2023-01-02T05:06:01.972Z,7.50
2023-01-02T05:08:30.289Z,10.80
2023-01-02T05:10:58.669Z,9.83
2023-01-02T05:13:26.304Z,7.10
2023-01-02T05:15:57.552Z,8.53
2023-01-02T05:18:25.257Z,8.63
2023-01-02T05:20:59.517Z,8.70
2023-01-02T05:23:45.591Z,11.83
2023-01-02T05:26:13.500Z,14.03
2023-01-02T05:28:41.505Z,7.70
2023-01-02T05:31:10.224Z,10.30
2023-01-02T05:33:38.721Z,6.97
2023-01-02T05:36:09.213Z,7.50
2023-01-02T05:38:39.885Z,12.07
2023-01-02T05:41:09.319Z,12.80
2023-01-02T05:43:38.788Z,13.40
2023-01-02T05:46:17.840Z,7.53
2023-01-02T05:48:46.987Z,12.07
2023-01-02T05:51:17.990Z,11.27
2023-01-02T05:53:45.943Z,8.80
2023-01-02T05:56:19.122Z,10.70
2023-01-02T05:58:50.308Z,11.13
2023-01-02T06:01:29.533Z,8.77
2023-01-02T06:04:00.938Z,5.90
2023-01-02T06:06:40.395Z,8.80
2023-01-02T06:09:13.118Z,6.50
2023-01-02T06:11:41.035Z,8.00
2023-01-02T06:14:10.784Z,8.57
2023-01-02T06:16:40.085Z,17.90
2023-01-02T06:19:08.442Z,13.20
2023-01-02T06:21:36.046Z,10.57
2023-01-02T06:24:03.819Z,10.13
2023-01-02T06:26:35.277Z,12.70
2023-01-02T06:29:04.709Z,10.00
2023-01-02T06:31:33.775Z,8.23
2023-01-02T06:34:04.490Z,11.07
2023-01-02T06:36:34.980Z,13.23
2023-01-02T06:39:03.088Z,4.30
2023-01-02T06:41:31.207Z,9.00
2023-01-02T06:43:58.954Z,8.17
2023-01-02T06:46:26.611Z,8.30
2023-01-02T06:48:54.170Z,8.37
2023-01-02T06:51:24.653Z,9.27
2023-01-02T06:53:52.672Z,5.70
2023-01-02T06:56:22.741Z,5.20
2023-01-02T06:58:50.731Z,4.73
2023-01-02T07:01:23.055Z,7.47
2023-01-02T07:03:51.953Z,10.37
2023-01-02T07:06:23.658Z,9.53
2023-01-02T07:08:52.351Z,7.40
2023-01-02T07:11:25.494Z,5.13
2023-01-02T07:13:55.751Z,7.13
2023-01-02T07:16:25.552Z,5.33
2023-01-02T07:18:55.009Z,7.53
2023-01-02T07:21:23.385Z,6.93
2023-01-02T07:23:51.088Z,8.10
2023-01-02T07:26:19.187Z,4.80
2023-01-02T07:28:47.776Z,4.97
2023-01-02T07:31:20.711Z,8.97
2023-01-02T07:33:49.249Z,6.43
2023-01-02T07:36:21.033Z,4.63
2023-01-02T07:38:55.358Z,10.40
2023-01-02T07:41:26.330Z,4.70
2023-01-02T07:43:56.655Z,5.93
2023-01-02T07:46:25.093Z,6.77
2023-01-02T07:48:52.718Z,5.17
2023-01-02T07:51:26.608Z,7.13
2023-01-02T07:53:57.006Z,5.10
2023-01-02T07:56:26.574Z,11.40
2023-01-02T07:58:54.388Z,8.13
2023-01-02T08:01:22.321Z,6.63
2023-01-02T08:03:50.167Z,7.27
2023-01-02T08:06:20.042Z,8.00
2023-01-02T08:08:48.460Z,5.80
2023-01-02T08:11:22.327Z,7.80
2023-01-02T08:13:50.882Z,6.80
2023-01-02T08:16:22.280Z,7.43
2023-01-02T08:18:55.773Z,7.57
2023-01-02T08:21:26.688Z,8.03
2023-01-02T08:23:54.570Z,9.70
2023-01-02T08:26:23.428Z,7.20
2023-01-02T08:28:51.382Z,8.13
2023-01-02T08:31:22.450Z,8.50
2023-01-02T08:33:50.308Z,7.23
2023-01-02T08:36:20.243Z,5.10
2023-01-02T08:38:48.652Z,5.40
2023-01-02T08:41:32.444Z,10.60
2023-01-02T08:44:00.711Z,8.20
2023-01-02T08:46:29.391Z,12.63
2023-01-02T08:48:58.104Z,6.33
2023-01-02T08:51:27.572Z,11.20
2023-01-02T08:53:55.462Z,8.63
2023-01-02T08:56:34.076Z,6.83
2023-01-02T08:59:08.790Z,6.23
2023-01-02T09:01:38.349Z,4.30
2023-01-02T09:04:11.856Z,4.53
2023-01-02T09:06:43.074Z,3.00
2023-01-02T09:09:16.681Z,1.80
2023-01-02T09:11:52.577Z,4.30
2023-01-02T09:14:22.427Z,2.57
2023-01-02T09:16:52.526Z,4.13
2023-01-02T09:19:20.439Z,2.83
2023-01-02T09:21:48.743Z,2.67
2023-01-02T09:24:16.719Z,2.60
2023-01-02T09:26:44.769Z,2.80
2023-01-02T09:29:14.993Z,3.23
2023-01-02T09:31:43.174Z,2.60
2023-01-02T09:34:11.991Z,3.30
2023-01-02T09:36:40.003Z,5.00
2023-01-02T09:39:09.300Z,2.70
2023-01-02T09:41:58.945Z,3.03
2023-01-02T09:44:39.052Z,3.80
2023-01-02T09:47:26.067Z,6.30
2023-01-02T09:50:10.315Z,2.40
2023-01-02T09:52:52.819Z,3.60
2023-01-02T09:56:11.339Z,2.80
2023-01-02T09:59:07.579Z,3.70
2023-01-02T10:02:26.254Z,4.70
2023-01-02T10:05:52.219Z,3.20
2023-01-02T10:09:18.567Z,4.20
2023-01-02T10:12:35.579Z,5.20
2023-01-02T10:15:15.850Z,3.67
2023-01-02T10:18:11.105Z,5.10
2023-01-02T10:20:48.933Z,5.80
2023-01-02T10:23:29.697Z,5.10
2023-01-02T10:26:12.631Z,6.70
2023-01-02T10:29:16.559Z,5.17
2023-01-02T10:32:02.240Z,5.80
2023-01-02T10:35:08.381Z,6.13
2023-01-02T10:37:36.798Z,6.07
2023-01-02T10:40:21.678Z,7.00
2023-01-02T10:42:59.971Z,4.53
2023-01-02T10:45:29.267Z,9.07
2023-01-02T10:47:56.805Z,5.33
2023-01-02T10:50:42.647Z,6.10
2023-01-02T10:53:39.744Z,5.90
2023-01-02T10:56:20.537Z,6.00
2023-01-02T10:58:53.119Z,7.13
2023-01-02T11:01:23.296Z,5.63
2023-01-02T11:04:20.366Z,8.83
2023-01-02T11:06:58.403Z,6.87
2023-01-02T11:09:33.723Z,6.03
2023-01-02T11:12:13.930Z,5.87
2023-01-02T11:14:42.232Z,5.80
2023-01-02T11:17:25.059Z,6.03
2023-01-02T11:19:57.403Z,5.90
2023-01-02T11:22:37.336Z,6.40
2023-01-02T11:25:25.423Z,7.00
2023-01-02T11:28:00.290Z,6.27
2023-01-02T11:30:52.087Z,5.57
2023-01-02T11:33:45.384Z,4.23
2023-01-02T11:36:12.947Z,6.80
2023-01-02T11:39:00.910Z,4.93
2023-01-02T11:42:20.454Z,5.83
2023-01-02T11:45:17.271Z,6.67
2023-01-02T11:48:04.817Z,7.50
2023-01-02T11:50:38.650Z,6.17
2023-01-02T11:53:20.611Z,9.23
2023-01-02T11:56:14.130Z,5.30
2023-01-02T11:59:06.462Z,5.80
2023-01-02T12:02:02.245Z,6.00
2023-01-02T12:04:31.036Z,5.90
2023-01-02T12:08:01.802Z,6.87
2023-01-02T12:11:18.370Z,5.47
2023-01-02T12:14:24.782Z,7.13
2023-01-02T12:17:57.147Z,6.60
2023-01-02T12:20:56.523Z,7.07
2023-01-02T12:24:26.705Z,9.97
2023-01-02T12:27:44.103Z,7.07
2023-01-02T12:30:23.036Z,7.70
2023-01-02T12:33:42.627Z,9.37
2023-01-02T12:36:40.046Z,8.10
2023-01-02T12:39:59.811Z,7.87
2023-01-02T12:43:02.727Z,8.20
2023-01-02T12:46:11.247Z,7.00
2023-01-02T12:49:49.916Z,6.10
2023-01-02T12:53:08.261Z,6.23
2023-01-02T12:56:10.714Z,6.93
2023-01-02T12:59:01.945Z,8.87
2023-01-02T13:01:53.932Z,8.70
2023-01-02T13:04:40.528Z,7.73
2023-01-02T13:07:49.108Z,8.73
2023-01-02T13:10:24.828Z,11.00
2023-01-02T13:12:59.209Z,9.27
2023-01-02T13:15:36.528Z,10.57
2023-01-02T13:19:00.230Z,11.17
2023-01-02T13:22:03.822Z,9.30
2023-01-02T13:24:32.519Z,11.07
2023-01-02T13:27:00.783Z,11.57
2023-01-02T13:29:46.188Z,11.07
2023-01-02T13:32:29.198Z,11.03
2023-01-02T13:35:04.085Z,10.67
2023-01-02T13:37:32.243Z,11.93
2023-01-02T13:40:05.332Z,9.77
2023-01-02T13:42:56.595Z,9.60
2023-01-02T13:45:53.759Z,8.23
2023-01-02T13:48:46.459Z,10.63
2023-01-02T13:51:32.248Z,9.70
2023-01-02T13:54:01.664Z,9.30
2023-01-02T13:56:30.298Z,10.80
2023-01-02T13:59:42.597Z,11.37
2023-01-02T14:02:21.421Z,12.80
2023-01-02T14:04:49.543Z,11.13
2023-01-02T14:07:26.130Z,18.13
2023-01-02T14:10:44.162Z,14.13
2023-01-02T14:13:30.123Z,14.60
2023-01-02T14:17:19.908Z,11.93
2023-01-02T14:20:17.310Z,13.87
2023-01-02T14:23:09.641Z,13.17
2023-01-02T14:25:50.803Z,16.60
2023-01-02T14:28:35.493Z,16.20
2023-01-02T14:31:32.091Z,16.60
2023-01-02T14:34:01.699Z,18.90
2023-01-02T14:36:48.571Z,16.10
2023-01-02T14:39:46.338Z,16.53
2023-01-02T14:42:53.419Z,56.07
2023-01-02T14:45:23.995Z,18.67
2023-01-02T14:48:16.654Z,13.77
2023-01-02T14:50:50.165Z,23.03
2023-01-02T14:53:38.814Z,14.40
2023-01-02T14:56:21.948Z,13.70
2023-01-02T14:58:53.371Z,14.20
2023-01-02T15:01:42.040Z,16.60
2023-01-02T15:04:54.770Z,11.90
2023-01-02T15:07:51.763Z,12.43
2023-01-02T15:10:24.062Z,11.23
2023-01-02T15:13:07.309Z,11.47
2023-01-02T15:15:50.277Z,14.60
2023-01-02T15:18:31.102Z,9.93
2023-01-02T15:21:16.023Z,12.40
2023-01-02T15:23:48.693Z,11.00
2023-01-02T15:26:35.072Z,10.63
2023-01-02T15:29:28.844Z,9.03
2023-01-02T15:32:00.889Z,11.20
2023-01-02T15:34:34.029Z,11.40
2023-01-02T15:37:07.732Z,8.63
2023-01-02T15:39:43.710Z,9.90
2023-01-02T15:42:45.519Z,10.10
2023-01-02T15:45:18.476Z,11.17
2023-01-02T15:47:52.642Z,8.13
2023-01-02T15:50:29.061Z,8.83
2023-01-02T15:53:34.710Z,10.90
2023-01-02T15:56:02.741Z,6.90
2023-01-02T15:58:36.589Z,7.60
2023-01-02T16:01:23.769Z,8.67
2023-01-02T16:04:05.624Z,7.53
2023-01-02T16:06:45.028Z,7.60
2023-01-02T16:09:31.520Z,7.93
2023-01-02T16:12:04.750Z,9.03
2023-01-02T16:14:49.412Z,7.67
2023-01-02T16:17:40.146Z,7.47
2023-01-02T16:20:23.658Z,8.47
2023-01-02T16:23:08.485Z,10.23
2023-01-02T16:25:45.660Z,9.57
2023-01-02T16:28:35.084Z,8.30
2023-01-02T16:31:20.213Z,11.13
2023-01-02T16:33:48.345Z,10.93
2023-01-02T16:36:15.901Z,7.90
2023-01-02T16:38:52.487Z,7.47
2023-01-02T16:41:37.099Z,9.60
2023-01-02T16:44:20.243Z,11.10
2023-01-02T16:46:50.815Z,10.93
2023-01-02T16:49:24.204Z,12.67
2023-01-02T16:51:54.621Z,8.50
2023-01-02T16:54:22.301Z,11.43
2023-01-02T16:56:51.172Z,8.50
2023-01-02T16:59:19.055Z,10.70
2023-01-02T17:01:46.824Z,12.17
2023-01-02T17:04:16.549Z,12.80
2023-01-02T17:06:44.239Z,10.50
2023-01-02T17:09:11.849Z,8.83
2023-01-02T17:11:59.559Z,13.87
2023-01-02T17:14:33.996Z,9.33
2023-01-02T17:17:02.037Z,11.10
2023-01-02T17:19:33.655Z,6.47
2023-01-02T17:22:01.429Z,10.50
2023-01-02T17:24:29.026Z,6.60
2023-01-02T17:26:56.659Z,3.67
2023-01-02T17:29:24.317Z,5.17
2023-01-02T17:31:51.887Z,4.73
2023-01-02T17:34:19.533Z,4.43
2023-01-02T17:36:47.142Z,4.20
2023-01-02T17:39:15.937Z,4.37
2023-01-02T17:41:43.566Z,5.70
2023-01-02T17:44:11.291Z,4.43
2023-01-02T17:49:27.100Z,4.63
2023-01-02T17:51:55.614Z,5.60
2023-01-02T17:54:23.596Z,5.23
2023-01-02T17:56:51.308Z,7.93
2023-01-02T17:59:19.860Z,6.00
2023-01-02T18:01:48.618Z,8.03
2023-01-02T18:04:17.221Z,7.00
2023-01-02T18:06:44.938Z,7.67
2023-01-02T18:09:12.825Z,7.03
2023-01-02T18:11:40.445Z,5.23
2023-01-02T18:14:25.497Z,6.43
2023-01-02T18:16:57.223Z,7.47
2023-01-02T18:19:37.721Z,7.80
2023-01-02T18:22:30.053Z,6.17
2023-01-02T18:24:57.775Z,7.23
2023-01-02T18:27:32.753Z,9.13
2023-01-02T18:30:17.927Z,7.13
2023-01-02T18:32:47.558Z,6.40
2023-01-02T18:38:39.833Z,8.63
2023-01-02T18:41:28.391Z,8.47
2023-01-02T18:44:26.005Z,11.30
2023-01-02T18:47:32.281Z,7.30
2023-01-02T18:50:35.026Z,8.73
2023-01-02T18:53:21.927Z,11.53
2023-01-02T18:56:01.923Z,8.63
2023-01-02T18:58:47.204Z,8.77
2023-01-02T19:01:39.663Z,12.60
2023-01-02T19:04:18.869Z,12.33
2023-01-02T19:06:56.596Z,11.13
2023-01-02T19:09:38.292Z,12.87
2023-01-02T19:12:33.269Z,10.37
2023-01-02T19:15:28.726Z,7.60
2023-01-02T19:18:19.955Z,8.70
2023-01-02T19:21:12.842Z,10.47
2023-01-02T19:24:18.941Z,9.30
2023-01-02T19:26:58.079Z,9.63
2023-01-02T19:29:34.888Z,8.07
2023-01-02T19:32:14.771Z,14.13
2023-01-02T19:35:08.544Z,8.03
2023-01-02T19:37:44.225Z,9.13
2023-01-02T19:40:22.183Z,7.20
2023-01-02T19:42:55.376Z,8.33
2023-01-02T19:45:28.107Z,6.87
2023-01-02T19:47:55.857Z,12.63
2023-01-02T19:50:27.668Z,10.07
2023-01-02T19:52:55.392Z,7.67
2023-01-02T19:55:23.052Z,10.87
2023-01-02T19:57:50.734Z,10.10
2023-01-02T20:00:19.616Z,7.40
2023-01-02T20:02:49.732Z,9.00
2023-01-02T20:05:22.793Z,8.30
2023-01-02T20:07:53.677Z,10.73
2023-01-02T20:10:22.906Z,9.90
2023-01-02T20:12:51.375Z,16.93
2023-01-02T20:15:26.914Z,11.27
2023-01-02T20:17:55.720Z,17.70
2023-01-02T20:20:27.059Z,13.63
2023-01-02T20:22:55.061Z,13.80
2023-01-02T20:25:26.499Z,17.00
2023-01-02T20:27:57.039Z,16.33
2023-01-02T20:30:26.593Z,11.90
2023-01-02T20:32:56.086Z,13.60
2023-01-02T20:35:24.294Z,11.87
2023-01-02T20:37:52.104Z,12.07
2023-01-02T20:40:19.941Z,14.30
2023-01-02T20:42:48.265Z,10.53
2023-01-02T20:45:15.966Z,14.90
2023-01-02T20:47:43.582Z,12.67
2023-01-02T20:50:11.191Z,12.63
2023-01-02T20:52:39.582Z,11.23
2023-01-02T20:55:08.232Z,15.10
2023-01-02T20:57:35.875Z,15.53
2023-01-02T21:00:09.867Z,13.10
2023-01-02T21:02:38.045Z,14.53
2023-01-02T21:05:06.117Z,17.40
2023-01-02T21:07:33.818Z,16.90
2023-01-02T21:10:05.256Z,17.57
2023-01-02T21:12:51.341Z,14.07
2023-01-02T21:15:37.603Z,20.97
2023-01-02T21:18:06.047Z,16.73
2023-01-02T21:20:34.302Z,17.60
2023-01-02T21:23:02.295Z,20.27
2023-01-02T21:25:30.611Z,17.37
2023-01-02T21:27:58.363Z,17.23
2023-01-02T21:30:27.092Z,17.57
2023-01-02T21:32:55.585Z,18.77
2023-01-02T21:35:23.306Z,15.50
2023-01-02T21:37:51.683Z,15.23
2023-01-02T21:40:19.531Z,13.53
2023-01-02T21:42:47.709Z,15.13
2023-01-02T21:45:15.521Z,14.77
2023-01-02T21:47:43.309Z,19.60
2023-01-02T21:50:12.349Z,18.80
2023-01-02T21:52:40.403Z,14.67
2023-01-02T21:55:09.026Z,14.00
2023-01-02T21:58:11.571Z,10.17
2023-01-02T22:00:29.457Z,16.33
2023-01-02T22:02:57.504Z,14.90
2023-01-02T22:05:25.163Z,14.10
2023-01-02T22:07:52.783Z,13.47
2023-01-02T22:10:20.635Z,14.27
2023-01-02T22:12:48.189Z,14.40
2023-01-02T22:15:15.782Z,15.57
2023-01-02T22:17:43.451Z,15.30
2023-01-02T22:20:11.938Z,17.37
2023-01-02T22:22:39.695Z,17.40
2023-01-02T22:25:09.635Z,16.37
2023-01-02T22:27:38.135Z,20.70
2023-01-02T22:30:33.147Z,25.27
2023-01-02T22:32:55.913Z,11.77
2023-01-02T22:35:23.583Z,20.47
2023-01-02T22:37:51.235Z,20.57
2023-01-02T22:40:18.851Z,19.13
2023-01-02T22:43:00.919Z,16.80
2023-01-02T22:45:42.590Z,19.33
2023-01-02T22:48:32.348Z,18.27
2023-01-02T22:51:05.779Z,14.90
2023-01-02T22:53:38.589Z,20.93
2023-01-02T22:56:21.854Z,17.03
2023-01-02T22:58:51.094Z,20.57
2023-01-02T23:01:44.638Z,16.57
2023-01-02T23:04:25.248Z,14.70
2023-01-02T23:07:22.800Z,17.97
2023-01-02T23:09:42.091Z,14.27
2023-01-02T23:12:09.979Z,17.07
2023-01-02T23:14:37.937Z,17.70
2023-01-02T23:17:24.469Z,21.03
2023-01-02T23:19:52.195Z,20.80
2023-01-02T23:22:19.773Z,19.07
2023-01-02T23:24:47.540Z,19.07
2023-01-02T23:27:15.539Z,19.43
2023-01-02T23:29:44.092Z,25.70
2023-01-02T23:32:12.785Z,25.77
2023-01-02T23:34:41.391Z,23.77
2023-01-02T23:37:09.535Z,28.10
2023-01-02T23:39:37.318Z,32.43
2023-01-02T23:42:05.998Z,31.07
2023-01-02T23:44:33.912Z,30.43
2023-01-02T23:47:07.093Z,26.33
2023-01-02T23:49:37.211Z,28.57
2023-01-02T23:52:05.506Z,24.77
2023-01-02T23:54:35.332Z,25.80
2023-01-02T23:57:03.142Z,25.63
2023-01-02T23:59:30.814Z,28.00
